Terminal Aerodrome Forecast
Issued by NWS Blacksburg, VA

Current Version | Previous Version | Graphics & Text | Print | Product List | Glossary On
Versions: 1 2 3 4 5 6 7 8 9 10 11 12 13 14 15 16
000
FTUS41 KRNK 211120
TAFBLF
TAF
KBLF 211120Z 2112/2212 VRB01KT P6SM FEW200
     FM211800 12003KT P6SM VCTS SCT035CB BKN100
     FM212000 17003KT 4SM SHRA BR VCTS BKN030CB
     FM220100 VRB03KT P6SM BKN100
     FM221000 25003KT 4SM BR BKN250=

USA.gov is the U.S. government's official web portal to all federal, state and local government web resources and services.